Time;durP1;ratioP1;P1;durP2;ratioP2;P2;SDS_P1;SDS_P2;PMS_P1;PMS_P2;Temp;Humidity;BMP_temperature;BMP_pressure;BME280_temperature;BME280_humidity;BME280_pressure;Samples;Min_cycle;Max_cycle;Signal;HPM_P1;HPM_P2
2022/07/21 00:01:55;;;;;;;15.93;7.80;;;;;;;26.23;63.32;100607.78;5072393;28;20700;-65
2022/07/21 00:04:21;;;;;;;12.00;7.90;;;;;;;26.31;63.12;100598.63;5070873;28;20171;-65
2022/07/21 00:06:47;;;;;;;15.30;8.10;;;;;;;26.28;63.19;100599.47;5070558;28;20240;-65
2022/07/21 00:09:12;;;;;;;10.93;8.50;;;;;;;26.23;62.92;100607.78;5071041;28;20227;-65
2022/07/21 00:11:38;;;;;;;15.70;7.93;;;;;;;26.20;63.61;100608.66;5069297;28;20492;-65
2022/07/21 00:14:04;;;;;;;10.80;8.00;;;;;;;26.27;63.21;100603.63;5069393;28;20187;-65
2022/07/21 00:16:30;;;;;;;9.67;7.70;;;;;;;26.30;63.28;100611.44;5068649;28;20585;-65
2022/07/21 00:18:55;;;;;;;9.50;6.87;;;;;;;26.31;62.48;100607.31;5068299;28;20414;-65
2022/07/21 00:21:21;;;;;;;10.30;7.50;;;;;;;26.31;62.89;100604.44;5083529;28;20178;-65
2022/07/21 00:23:46;;;;;;;13.53;8.40;;;;;;;26.32;62.86;100606.06;5089437;28;20181;-65
2022/07/21 00:26:11;;;;;;;12.80;8.27;;;;;;;26.32;62.35;100611.03;5088743;28;20323;-65
2022/07/21 00:28:37;;;;;;;10.53;8.07;;;;;;;26.33;62.93;100606.88;5090119;28;20524;-65
2022/07/21 00:31:02;;;;;;;14.40;8.27;;;;;;;26.31;62.49;100607.31;5090205;28;20194;-65
2022/07/21 00:33:28;;;;;;;10.57;7.80;;;;;;;26.32;62.16;100608.13;5092289;28;20652;-65
2022/07/21 00:35:53;;;;;;;14.80;7.80;;;;;;;26.31;62.46;100604.44;5091770;28;20644;-65
2022/07/21 00:38:21;;;;;;;10.27;7.80;;;;;;;26.34;62.42;100603.56;5091762;28;20665;-65
2022/07/21 00:40:47;;;;;;;10.87;7.50;;;;;;;26.33;62.42;100607.72;5091599;28;20215;-65
2022/07/21 00:43:12;;;;;;;10.63;7.40;;;;;;;26.35;61.93;100610.19;5091900;28;20420;-65
2022/07/21 00:45:38;;;;;;;17.60;8.10;;;;;;;26.36;62.31;100617.63;5091753;28;20568;-65
2022/07/21 00:48:03;;;;;;;9.77;7.27;;;;;;;26.37;61.92;100620.09;5091733;28;20178;-65
2022/07/21 00:50:29;;;;;;;13.17;7.80;;;;;;;26.36;61.88;100612.66;5091129;28;20503;-65
2022/07/21 00:52:54;;;;;;;8.80;7.00;;;;;;;26.38;62.12;100623.78;5076415;28;20183;-65
2022/07/21 00:55:21;;;;;;;9.13;7.47;;;;;;;26.36;62.00;100615.56;5071326;28;20171;-65
2022/07/21 00:57:46;;;;;;;12.03;7.40;;;;;;;26.33;61.84;100613.50;5071333;28;20178;-65
2022/07/21 01:00:20;;;;;;;10.77;7.40;;;;;;;26.34;62.06;100615.13;5071134;28;20412;-65
2022/07/21 01:02:45;;;;;;;8.37;7.13;;;;;;;26.35;61.92;100615.97;5069876;28;20171;-65
2022/07/21 01:05:14;;;;;;;8.87;6.60;;;;;;;26.34;62.13;100615.13;5071216;28;20923;-65
2022/07/21 01:07:44;;;;;;;11.90;7.97;;;;;;;26.32;61.74;100611.84;5070981;28;20282;-65
2022/07/21 01:10:11;;;;;;;9.07;6.77;;;;;;;26.32;62.34;100619.72;5070558;28;20929;-65
2022/07/21 01:12:36;;;;;;;9.77;7.20;;;;;;;26.32;62.16;100619.72;5071164;28;20951;-65
2022/07/21 01:15:03;;;;;;;11.50;7.10;;;;;;;26.32;62.14;100613.91;5083222;28;20424;-65
2022/07/21 01:17:28;;;;;;;12.53;7.60;;;;;;;26.34;62.19;100615.13;5090758;28;20512;-65
2022/07/21 01:19:54;;;;;;;12.27;7.27;;;;;;;26.32;61.94;100611.84;5091202;28;20400;-65
2022/07/21 01:22:20;;;;;;;9.80;7.53;;;;;;;26.33;61.92;100616.41;5091047;28;20178;-65
2022/07/21 01:24:45;;;;;;;10.20;6.93;;;;;;;26.34;61.52;100623.81;5091146;28;20181;-65
2022/07/21 01:27:10;;;;;;;12.90;8.03;;;;;;;26.34;61.87;100631.72;5090892;28;20174;-65
2022/07/21 01:29:36;;;;;;;8.33;6.93;;;;;;;26.32;61.60;100635.03;5091130;28;20174;-65
2022/07/21 01:32:03;;;;;;;9.20;6.50;;;;;;;26.32;62.12;100629.22;5091176;28;20163;-65
2022/07/21 01:34:29;;;;;;;10.43;6.87;;;;;;;26.31;62.09;100630.50;5091088;28;20170;-65
2022/07/21 01:36:54;;;;;;;7.10;6.13;;;;;;;26.31;62.09;100633.38;5091053;28;20423;-65
2022/07/21 01:42:04;;;;;;;14.17;8.53;;;;;;;26.27;62.18;100638.38;5091188;28;20641;-65
2022/07/21 01:44:29;;;;;;;12.17;7.17;;;;;;;26.27;61.87;100638.38;5091011;28;20408;-65
2022/07/21 01:46:55;;;;;;;10.00;7.30;;;;;;;26.25;61.86;100640.03;5090795;28;20643;-65
2022/07/21 01:49:20;;;;;;;12.00;7.07;;;;;;;26.23;61.87;100648.31;5089786;28;20174;-65
2022/07/21 01:51:46;;;;;;;7.73;6.33;;;;;;;26.23;61.49;100645.41;5086401;28;20206;-65
2022/07/21 01:54:11;;;;;;;12.47;7.10;;;;;;;26.24;62.07;100645.00;5069119;28;20202;-65
2022/07/21 01:56:37;;;;;;;13.00;7.90;;;;;;;26.24;61.75;100636.31;5077886;28;20178;-65
2022/07/21 01:59:03;;;;;;;10.07;7.00;;;;;;;26.24;61.59;100645.00;5088717;28;20600;-65
2022/07/21 02:01:28;;;;;;;8.07;6.83;;;;;;;26.24;61.89;100650.78;5089023;28;20174;-64
2022/07/21 02:03:55;;;;;;;11.50;7.03;;;;;;;26.24;62.06;100653.69;5087959;28;20271;-64
2022/07/21 02:06:20;;;;;;;10.47;7.20;;;;;;;26.24;61.71;100658.66;5088615;28;20196;-64
2022/07/21 02:08:46;;;;;;;10.60;7.07;;;;;;;26.23;62.02;100659.91;5089096;28;20464;-64
2022/07/21 02:11:12;;;;;;;7.60;6.60;;;;;;;26.20;61.25;100652.88;5091836;28;20199;-64
2022/07/21 02:13:38;;;;;;;9.60;6.40;;;;;;;26.20;61.82;100669.44;5094544;28;20239;-64
2022/07/21 02:16:04;;;;;;;9.33;7.30;;;;;;;26.20;61.72;100673.16;5094694;28;20885;-64
2022/07/21 02:18:29;;;;;;;9.97;7.00;;;;;;;26.21;61.60;100682.66;5093125;28;20633;-64
2022/07/21 02:20:54;;;;;;;8.27;6.17;;;;;;;26.18;61.61;100684.34;5093337;28;20272;-64
2022/07/21 02:23:22;;;;;;;10.20;7.43;;;;;;;26.18;62.19;100681.44;5094255;28;20182;-65
2022/07/21 02:25:47;;;;;;;9.80;6.70;;;;;;;26.14;61.92;100686.44;5076433;28;20641;-65
2022/07/21 02:28:12;;;;;;;8.77;6.90;;;;;;;26.14;62.33;100686.44;5093946;28;20424;-65
2022/07/21 02:30:38;;;;;;;10.97;6.70;;;;;;;26.14;61.80;100695.13;5093976;28;20190;-65
2022/07/21 02:33:04;;;;;;;8.90;7.30;;;;;;;26.10;62.48;100693.50;5094412;28;20170;-65
2022/07/21 02:35:29;;;;;;;11.17;6.73;;;;;;;26.11;62.16;100687.28;5094281;28;20155;-65
2022/07/21 02:37:54;;;;;;;10.20;7.20;;;;;;;26.00;63.00;100685.72;5093211;28;20178;-65
2022/07/21 02:40:20;;;;;;;10.43;7.83;;;;;;;26.06;62.66;100687.75;5091511;28;20169;-65
2022/07/21 02:42:45;;;;;;;15.90;7.50;;;;;;;26.10;62.19;100687.72;5092899;28;20162;-65
2022/07/21 02:45:11;;;;;;;10.53;7.30;;;;;;;26.11;62.64;100684.41;5092961;28;20165;-65
2022/07/21 02:47:48;;;;;;;12.93;7.20;;;;;;;26.14;61.98;100692.22;5091274;28;20223;-65
2022/07/21 02:50:15;;;;;;;9.90;7.10;;;;;;;26.15;62.11;100682.28;5092356;28;20234;-65
2022/07/21 02:52:40;;;;;;;12.20;7.10;;;;;;;26.16;62.33;100678.16;5092428;28;20470;-65
2022/07/21 02:55:06;;;;;;;9.20;6.80;;;;;;;26.16;62.09;100683.13;5094030;28;20420;-65
2022/07/21 02:57:32;;;;;;;10.27;6.70;;;;;;;26.18;61.69;100675.66;5094132;28;20178;-65
2022/07/21 02:59:57;;;;;;;11.70;7.90;;;;;;;26.17;62.16;100676.91;5093875;28;20247;-65
2022/07/21 03:02:23;;;;;;;10.70;7.83;;;;;;;26.19;62.30;100685.19;5093921;28;20171;-64
2022/07/21 03:04:48;;;;;;;10.60;7.13;;;;;;;26.19;61.90;100682.28;5093504;28;20182;-64
2022/07/21 03:07:13;;;;;;;12.17;8.57;;;;;;;26.19;62.05;100676.50;5093570;28;20194;-64
2022/07/21 03:09:39;;;;;;;10.57;7.73;;;;;;;26.19;62.09;100671.50;5093602;28;20222;-64
2022/07/21 03:12:04;;;;;;;15.03;7.70;;;;;;;26.21;61.97;100669.03;5093094;28;20541;-64
2022/07/21 03:14:30;;;;;;;8.33;7.30;;;;;;;26.22;61.50;100664.88;5093400;28;20181;-64
2022/07/21 03:16:57;;;;;;;10.50;7.60;;;;;;;26.24;61.24;100664.47;5093690;28;20174;-64
2022/07/21 03:19:22;;;;;;;12.00;7.70;;;;;;;26.24;61.87;100673.16;5093331;28;20570;-64
2022/07/21 03:21:48;;;;;;;13.97;8.07;;;;;;;26.25;61.14;100674.78;5087605;28;20417;-64
2022/07/21 03:24:13;;;;;;;9.07;7.53;;;;;;;26.24;61.25;100667.34;5072849;28;20168;-64
2022/07/21 03:26:39;;;;;;;12.50;7.57;;;;;;;26.25;61.80;100671.88;5092895;28;20170;-64
2022/07/21 03:29:04;;;;;;;9.50;7.70;;;;;;;26.24;61.17;100679.75;5093398;28;20390;-64
2022/07/21 03:31:30;;;;;;;9.40;7.63;;;;;;;26.26;61.58;100677.25;5093251;28;20255;-64
2022/07/21 03:33:55;;;;;;;11.03;8.30;;;;;;;26.24;60.99;100679.75;5092838;28;20232;-64
2022/07/21 03:36:22;;;;;;;14.10;7.97;;;;;;;26.25;61.15;100687.16;5093123;28;20571;-64
2022/07/21 03:38:48;;;;;;;8.93;7.57;;;;;;;26.25;61.27;100692.97;5093314;28;20648;-65
2022/07/21 03:41:13;;;;;;;13.23;8.77;;;;;;;26.26;61.12;100691.75;5093310;28;20428;-64
2022/07/21 03:43:38;;;;;;;10.63;8.43;;;;;;;26.24;61.73;100687.63;5090872;28;20170;-64
2022/07/21 03:46:04;;;;;;;13.07;8.50;;;;;;;26.24;61.55;100700.00;5091056;28;20185;-64
2022/07/21 03:48:29;;;;;;;10.43;7.00;;;;;;;26.23;61.56;100691.75;5091092;28;20174;-65
2022/07/21 03:50:55;;;;;;;9.97;7.97;;;;;;;26.24;61.67;100697.09;5091076;28;20772;-65
2022/07/21 03:53:20;;;;;;;13.83;7.57;;;;;;;26.24;61.17;100696.31;5073059;28;20236;-65
2022/07/21 03:55:46;;;;;;;9.60;7.00;;;;;;;26.24;61.83;100694.22;5081444;28;20179;-65
2022/07/21 03:58:11;;;;;;;10.97;7.67;;;;;;;26.24;61.20;100694.22;5092923;28;20195;-65
2022/07/21 04:00:41;;;;;;;9.80;7.80;;;;;;;26.24;61.19;100691.31;5092634;28;20179;-65
2022/07/21 04:03:07;;;;;;;11.20;7.27;;;;;;;26.26;61.50;100697.53;5091226;28;20607;-65
2022/07/21 04:05:32;;;;;;;9.27;7.70;;;;;;;26.25;61.28;100692.97;5092150;28;20434;-65
2022/07/21 04:07:58;;;;;;;11.10;8.07;;;;;;;26.25;61.25;100692.97;5092485;28;20261;-65
2022/07/21 04:10:26;;;;;;;10.63;7.77;;;;;;;26.25;61.76;100690.06;5092260;28;20222;-65
2022/07/21 04:12:51;;;;;;;15.70;7.97;;;;;;;26.25;61.19;100692.97;5092297;28;20597;-65
2022/07/21 04:15:17;;;;;;;10.33;7.43;;;;;;;26.24;61.46;100687.63;5090721;28;20515;-65
2022/07/21 04:17:42;;;;;;;13.10;7.77;;;;;;;26.24;61.19;100687.63;5091160;28;20621;-65
2022/07/21 04:20:08;;;;;;;11.70;8.63;;;;;;;26.24;61.36;100697.09;5090715;28;20747;-65
2022/07/21 04:22:34;;;;;;;12.10;7.13;;;;;;;26.24;61.39;100693.41;5089758;28;20182;-65
2022/07/21 04:24:59;;;;;;;10.43;7.20;;;;;;;26.23;61.75;100689.69;5090672;28;20412;-65
2022/07/21 04:27:25;;;;;;;12.07;8.23;;;;;;;26.24;61.09;100691.31;5090726;28;20214;-65
2022/07/21 04:29:51;;;;;;;10.17;7.43;;;;;;;26.24;61.26;100697.09;5090464;28;20194;-65
2022/07/21 04:32:16;;;;;;;9.43;7.03;;;;;;;26.22;61.50;100696.72;5091517;28;20166;-65
2022/07/21 04:34:42;;;;;;;12.07;7.43;;;;;;;26.21;61.84;100686.41;5092207;28;20193;-65
2022/07/21 04:37:07;;;;;;;12.83;9.50;;;;;;;26.19;62.29;100699.66;5092056;28;20163;-65
2022/07/21 04:39:33;;;;;;;12.17;7.63;;;;;;;26.16;62.09;100691.81;5089951;28;20574;-65
2022/07/21 04:41:58;;;;;;;10.77;7.70;;;;;;;26.17;62.21;100690.53;5091962;28;20170;-65
2022/07/21 04:44:23;;;;;;;10.63;8.07;;;;;;;26.15;62.24;100690.97;5091666;28;20565;-64
2022/07/21 04:46:49;;;;;;;11.10;8.47;;;;;;;26.18;61.67;100698.81;5091872;28;20573;-64
2022/07/21 04:49:14;;;;;;;11.80;8.10;;;;;;;26.15;62.42;100704.63;5089949;28;20166;-65
2022/07/21 04:51:40;;;;;;;10.73;6.90;;;;;;;26.14;61.90;100703.78;5090329;28;20205;-65
2022/07/21 04:54:06;;;;;;;12.50;8.30;;;;;;;26.16;61.99;100701.31;5091557;28;20239;-65
2022/07/21 04:56:32;;;;;;;10.30;7.90;;;;;;;26.15;62.53;100705.44;5091733;28;20178;-65
2022/07/21 04:58:58;;;;;;;11.70;8.23;;;;;;;26.15;62.37;100711.22;5091394;28;20500;-65
2022/07/21 05:01:23;;;;;;;12.43;7.80;;;;;;;26.14;62.23;100709.59;5091458;28;20997;-65
2022/07/21 05:03:49;;;;;;;14.23;8.30;;;;;;;26.09;62.37;100712.94;5091388;28;20171;-65
2022/07/21 05:06:14;;;;;;;9.53;7.30;;;;;;;26.10;62.48;100708.78;5091508;28;20186;-65
2022/07/21 05:08:40;;;;;;;14.20;8.87;;;;;;;26.13;62.41;100713.72;5091009;28;20229;-65
2022/07/21 05:11:05;;;;;;;9.93;7.40;;;;;;;26.14;62.31;100715.38;5091378;28;20194;-65
2022/07/21 05:13:30;;;;;;;12.10;8.33;;;;;;;26.14;62.42;100715.38;5091350;28;20178;-65
2022/07/21 05:15:56;;;;;;;9.37;7.23;;;;;;;26.15;62.21;100711.22;5091268;28;20174;-65
2022/07/21 05:18:21;;;;;;;12.30;7.77;;;;;;;26.14;62.60;100726.94;5090571;28;20185;-65
2022/07/21 05:20:47;;;;;;;10.03;7.63;;;;;;;26.14;61.73;100721.16;5091096;28;20166;-65
2022/07/21 05:23:12;;;;;;;15.43;8.87;;;;;;;26.15;62.13;100734.38;5091306;28;20618;-65
2022/07/21 05:25:37;;;;;;;10.47;7.53;;;;;;;26.15;62.02;100722.00;5091263;28;20175;-65
2022/07/21 05:28:05;;;;;;;9.37;7.33;;;;;;;26.13;62.43;100721.59;5091126;28;20171;-65
2022/07/21 05:30:30;;;;;;;12.53;8.80;;;;;;;26.10;62.60;100720.34;5090514;28;20194;-65
2022/07/21 05:32:56;;;;;;;13.23;8.77;;;;;;;26.06;62.53;100725.38;5091067;28;20421;-65
2022/07/21 05:35:21;;;;;;;9.30;7.80;;;;;;;26.09;62.48;100724.50;5091056;28;20170;-65
2022/07/21 05:37:46;;;;;;;14.93;8.90;;;;;;;26.07;62.31;100720.38;5090722;28;20632;-65
2022/07/21 05:40:12;;;;;;;13.90;8.27;;;;;;;25.99;63.14;100718.78;5089383;28;20166;-65
2022/07/21 05:42:37;;;;;;;10.37;7.70;;;;;;;26.00;63.24;100720.44;5089770;28;20178;-65
2022/07/21 05:45:03;;;;;;;11.37;8.50;;;;;;;26.02;62.89;100718.75;5089222;28;20174;-65
2022/07/21 05:47:29;;;;;;;11.13;8.40;;;;;;;26.04;62.63;100710.47;5088802;28;20253;-65
2022/07/21 05:49:55;;;;;;;13.50;8.60;;;;;;;26.05;62.33;100715.00;5088897;28;20174;-65
2022/07/21 05:52:20;;;;;;;11.00;8.30;;;;;;;26.04;62.69;100715.47;5080194;28;20420;-65
2022/07/21 05:54:46;;;;;;;14.00;8.00;;;;;;;26.06;63.06;100705.09;5068831;28;20171;-65
2022/07/21 05:57:11;;;;;;;13.57;8.60;;;;;;;25.87;63.91;100722.94;5070744;28;20224;-65
2022/07/21 05:59:37;;;;;;;12.37;8.90;;;;;;;25.77;64.17;100714.31;5070516;28;20175;-65
2022/07/21 06:02:02;;;;;;;15.00;9.20;;;;;;;25.89;64.07;100725.44;5085208;28;20684;-65
2022/07/21 06:04:28;;;;;;;10.23;8.33;;;;;;;25.96;63.86;100723.34;5090029;28;20637;-65
2022/07/21 06:06:53;;;;;;;14.03;9.27;;;;;;;25.97;63.03;100730.78;5090624;28;20194;-65
2022/07/21 06:09:19;;;;;;;10.17;8.60;;;;;;;25.91;63.55;100734.50;5089014;28;20218;-65
2022/07/21 06:11:45;;;;;;;15.60;8.80;;;;;;;25.97;62.73;100727.88;5088612;28;20560;-65
2022/07/21 06:14:10;;;;;;;10.87;9.07;;;;;;;26.03;62.38;100731.16;5088374;28;20423;-65
2022/07/21 06:16:36;;;;;;;12.23;8.17;;;;;;;26.03;63.02;100736.94;5089316;28;20547;-65
2022/07/21 06:19:01;;;;;;;12.23;10.00;;;;;;;26.03;63.35;100736.94;5090018;28;20231;-65
2022/07/21 06:21:28;;;;;;;13.03;9.20;;;;;;;26.03;63.69;100743.56;5089849;28;20174;-65
2022/07/21 06:23:53;;;;;;;13.07;9.00;;;;;;;26.04;63.41;100745.19;5088909;28;20240;-65
2022/07/21 06:26:19;;;;;;;10.70;9.13;;;;;;;26.04;63.72;100742.31;5090561;28;20416;-65
2022/07/21 06:28:44;;;;;;;12.20;9.47;;;;;;;26.02;63.48;100747.72;5090467;28;20243;-65
2022/07/21 06:31:09;;;;;;;13.23;10.03;;;;;;;25.93;64.43;100750.22;5090251;28;20239;-65
2022/07/21 06:33:35;;;;;;;15.37;9.50;;;;;;;25.97;63.95;100742.34;5090411;28;20632;-65
2022/07/21 06:36:00;;;;;;;12.47;9.53;;;;;;;25.99;63.98;100748.53;5090511;28;20182;-65
2022/07/21 06:38:26;;;;;;;13.70;10.17;;;;;;;25.93;63.96;100738.66;5090410;28;20702;-65
2022/07/21 06:40:51;;;;;;;15.07;10.87;;;;;;;25.99;63.45;100748.53;5090086;28;20544;-64
2022/07/21 06:43:17;;;;;;;19.40;15.53;;;;;;;25.27;68.00;100748.38;5086188;28;20181;-65
2022/07/21 06:45:42;;;;;;;17.17;14.33;;;;;;;25.18;69.15;100747.94;5088842;28;20553;-65
2022/07/21 06:48:08;;;;;;;20.30;14.27;;;;;;;25.71;67.95;100742.88;5087114;28;20553;-65
2022/07/21 06:50:33;;;;;;;22.67;15.03;;;;;;;25.87;68.15;100751.88;5088243;28;20533;-64
2022/07/21 06:52:59;;;;;;;22.20;17.37;;;;;;;25.98;68.55;100758.47;5087855;28;20201;-64
2022/07/21 06:55:24;;;;;;;26.57;19.67;;;;;;;25.45;69.87;100763.63;5089832;28;20567;-64
2022/07/21 06:57:50;;;;;;;29.87;19.57;;;;;;;25.33;70.72;100772.72;5091316;28;20182;-64
2022/07/21 07:00:16;;;;;;;20.30;15.30;;;;;;;25.89;69.08;100769.63;5092129;28;20630;-65
2022/07/21 07:02:41;;;;;;;21.13;15.10;;;;;;;25.93;67.97;100764.69;5090411;28;20171;-65
2022/07/21 07:05:07;;;;;;;23.30;15.37;;;;;;;25.94;69.00;100769.22;5091041;28;20170;-65
2022/07/21 07:07:32;;;;;;;21.50;15.83;;;;;;;25.85;67.86;100765.94;5089997;28;20276;-66
2022/07/21 07:09:59;;;;;;;21.37;15.30;;;;;;;25.86;68.15;100764.72;5091059;28;20600;-65
2022/07/21 07:12:24;;;;;;;28.23;15.47;;;;;;;25.77;68.00;100770.09;5091845;28;20265;-64
2022/07/21 07:14:50;;;;;;;23.63;15.40;;;;;;;25.68;68.44;100772.63;5091739;28;20435;-65
2022/07/21 07:17:18;;;;;;;15.80;13.43;;;;;;;25.76;67.10;100765.56;5091673;28;20178;-65
2022/07/21 07:19:44;;;;;;;16.33;13.53;;;;;;;25.90;67.89;100774.16;5091581;28;20182;-65
2022/07/21 07:22:09;;;;;;;20.63;14.90;;;;;;;25.70;68.85;100769.31;5084321;28;20420;-64
2022/07/21 07:24:35;;;;;;;17.60;13.33;;;;;;;25.88;67.61;100770.88;5088948;28;20589;-65
2022/07/21 07:27:00;;;;;;;16.27;13.67;;;;;;;25.59;68.01;100769.34;5091069;28;20162;-65
2022/07/21 07:29:26;;;;;;;16.90;14.97;;;;;;;25.37;69.41;100773.53;5090942;28;20183;-65
2022/07/21 07:31:51;;;;;;;21.43;15.30;;;;;;;25.31;69.31;100772.31;5089821;28;20190;-65
2022/07/21 07:34:16;;;;;;;15.53;13.83;;;;;;;25.75;67.28;100771.78;5091181;28;20664;-65
2022/07/21 07:36:42;;;;;;;17.90;13.80;;;;;;;25.67;67.53;100770.97;5091633;28;20169;-65
2022/07/21 07:39:07;;;;;;;17.37;14.07;;;;;;;25.54;68.20;100768.97;5090094;28;20703;-65
2022/07/21 07:41:33;;;;;;;17.40;14.93;;;;;;;25.32;68.62;100776.84;5087196;28;20228;-65
2022/07/21 07:43:59;;;;;;;17.47;12.90;;;;;;;25.60;67.41;100767.28;5088680;28;20501;-65
2022/07/21 07:46:25;;;;;;;16.17;13.80;;;;;;;25.56;67.66;100764.41;5088060;28;20178;-65
2022/07/21 07:48:50;;;;;;;17.30;13.93;;;;;;;25.58;66.84;100761.91;5089684;28;20439;-65
2022/07/21 07:51:16;;;;;;;15.17;12.73;;;;;;;25.77;66.28;100767.22;5089363;28;20191;-65
2022/07/21 07:53:41;;;;;;;19.23;15.27;;;;;;;25.55;67.65;100759.88;5069042;28;20172;-64
2022/07/21 07:56:07;;;;;;;14.93;12.33;;;;;;;25.61;66.94;100768.91;5088869;28;20189;-65
2022/07/21 07:58:33;;;;;;;19.70;11.90;;;;;;;25.83;65.79;100762.63;5088834;28;20206;-65
2022/07/21 08:00:58;;;;;;;18.90;14.47;;;;;;;25.46;67.14;100765.25;5088436;28;20194;-65
2022/07/21 08:03:24;;;;;;;18.90;13.97;;;;;;;25.53;67.17;100764.44;5090473;28;20484;-65
2022/07/21 08:05:49;;;;;;;17.23;13.00;;;;;;;25.33;66.72;100766.94;5089483;28;20194;-65
2022/07/21 08:08:15;;;;;;;18.80;12.80;;;;;;;25.59;65.94;100763.56;5089397;28;20186;-65
2022/07/21 08:10:40;;;;;;;20.10;12.47;;;;;;;25.82;65.25;100766.78;5090117;28;20214;-65
2022/07/21 08:13:08;;;;;;;16.13;12.73;;;;;;;25.78;65.15;100762.25;5092017;28;20181;-65
2022/07/21 08:15:34;;;;;;;18.17;12.77;;;;;;;25.90;64.75;100761.78;5092660;28;20601;-65
2022/07/21 08:17:59;;;;;;;18.93;13.43;;;;;;;25.81;64.86;100758.53;5090734;28;20456;-65
2022/07/21 08:20:25;;;;;;;23.33;12.63;;;;;;;25.78;65.21;100754.41;5089166;28;20186;-64
2022/07/21 08:22:50;;;;;;;17.60;12.10;;;;;;;25.91;64.26;100752.72;5089500;28;20616;-64
2022/07/21 08:25:19;;;;;;;17.03;12.50;;;;;;;25.95;64.57;100758.50;5088737;28;20182;-64
2022/07/21 08:27:44;;;;;;;18.37;12.50;;;;;;;25.94;64.35;100757.66;5088473;28;20170;-64
2022/07/21 08:30:10;;;;;;;13.50;11.90;;;;;;;25.96;63.83;100765.91;5088683;28;20413;-64
2022/07/21 08:32:35;;;;;;;17.80;12.47;;;;;;;25.91;63.84;100772.13;5088730;28;20661;-64
2022/07/21 08:35:01;;;;;;;15.73;12.03;;;;;;;26.08;63.51;100768.34;5090534;28;20170;-64
2022/07/21 08:37:26;;;;;;;16.57;11.83;;;;;;;26.11;63.64;100773.28;5090042;28;20220;-64
2022/07/21 08:39:52;;;;;;;16.10;11.40;;;;;;;26.06;63.58;100768.78;5091782;28;20170;-64
2022/07/21 08:42:17;;;;;;;16.07;11.27;;;;;;;26.03;63.34;100778.28;5091270;28;20185;-64
2022/07/21 08:44:43;;;;;;;14.10;11.40;;;;;;;26.12;62.95;100774.94;5091860;28;20170;-64
2022/07/21 08:47:08;;;;;;;15.00;11.93;;;;;;;26.05;63.14;100778.69;5091753;28;20367;-64
2022/07/21 08:49:34;;;;;;;14.70;11.30;;;;;;;26.03;62.05;100777.44;5091327;28;20235;-64
2022/07/21 08:51:59;;;;;;;12.97;10.70;;;;;;;26.07;63.11;100779.09;5085041;28;20249;-64
2022/07/21 08:54:24;;;;;;;12.90;10.60;;;;;;;26.13;62.00;100777.41;5071538;28;20175;-64
2022/07/21 08:56:50;;;;;;;14.07;11.30;;;;;;;26.14;61.76;100776.16;5071224;28;20171;-64
2022/07/21 08:59:15;;;;;;;13.07;10.67;;;;;;;26.08;60.99;100785.69;5071526;28;20171;-64
2022/07/21 09:01:41;;;;;;;14.53;9.60;;;;;;;26.12;60.42;100764.19;5071358;28;20619;-64
2022/07/21 09:04:40;;;;;;;12.00;9.47;;;;;;;26.20;60.70;100770.75;5076303;28;20166;-64
2022/07/21 09:07:06;;;;;;;15.60;10.10;;;;;;;26.17;60.32;100766.66;5078913;28;20202;-64
2022/07/21 09:09:32;;;;;;;11.63;9.77;;;;;;;26.15;60.85;100768.31;5091080;28;20548;-64
2022/07/21 09:12:01;;;;;;;14.23;9.37;;;;;;;26.10;60.29;100766.66;5091367;28;20456;-64
2022/07/21 09:14:29;;;;;;;12.73;10.00;;;;;;;26.15;60.11;100774.09;5091274;28;20412;-64
2022/07/21 09:16:56;;;;;;;10.93;9.10;;;;;;;26.14;59.98;100784.84;5090577;28;20416;-64
2022/07/21 09:19:26;;;;;;;12.50;9.10;;;;;;;26.09;60.12;100772.91;5090476;28;20419;-64
2022/07/21 09:21:53;;;;;;;11.00;8.73;;;;;;;26.13;59.79;100780.31;5091165;28;20417;-64
2022/07/21 09:24:29;;;;;;;13.33;8.73;;;;;;;26.07;58.40;100767.53;5091344;28;20953;-64
2022/07/21 09:27:19;;;;;;;12.27;9.00;;;;;;;26.20;59.32;100773.66;5091075;28;20448;-64
2022/07/21 09:29:53;;;;;;;13.63;8.70;;;;;;;26.18;59.00;100773.25;5091399;28;20861;-64
2022/07/21 09:32:20;;;;;;;15.73;8.40;;;;;;;26.20;58.89;100765.78;5089620;28;20456;-65
2022/07/21 09:34:51;;;;;;;11.23;8.57;;;;;;;26.22;58.69;100769.09;5089800;28;20888;-64
2022/07/21 09:37:16;;;;;;;15.03;8.67;;;;;;;26.24;58.97;100763.69;5089423;28;20507;-64
2022/07/21 09:39:58;;;;;;;10.67;8.77;;;;;;;26.17;58.91;100763.75;5090390;28;20408;-64
2022/07/21 09:42:32;;;;;;;12.60;8.77;;;;;;;26.21;59.14;100766.63;5091008;28;20197;-64
2022/07/21 09:45:06;;;;;;;11.53;8.90;;;;;;;26.24;58.98;100757.91;5089235;28;20491;-64
2022/07/21 09:47:32;;;;;;;11.37;8.53;;;;;;;26.27;59.14;100765.75;5088933;28;20427;-64
2022/07/21 09:50:01;;;;;;;12.27;9.10;;;;;;;26.28;58.80;100767.41;5088830;28;20968;-63
2022/07/21 09:52:30;;;;;;;9.60;7.87;;;;;;;26.29;58.69;100763.25;5078707;28;20191;-64
2022/07/21 09:55:01;;;;;;;10.20;8.43;;;;;;;26.27;59.26;100762.03;5068845;28;20410;-64
2022/07/21 09:57:26;;;;;;;12.67;8.13;;;;;;;26.28;59.42;100761.59;5068480;28;20418;-64
2022/07/21 09:59:52;;;;;;;11.33;8.00;;;;;;;26.18;59.90;100761.66;5069706;28;20471;-64
2022/07/21 10:02:26;;;;;;;11.30;8.57;;;;;;;26.25;59.27;100759.56;5077183;28;20170;-64
2022/07/21 10:05:15;;;;;;;11.60;8.50;;;;;;;26.24;59.21;100765.78;5090815;28;20191;-64
2022/07/21 10:07:45;;;;;;;10.13;8.10;;;;;;;26.28;59.01;100761.59;5090155;28;20954;-64
2022/07/21 10:10:11;;;;;;;9.30;8.20;;;;;;;26.31;59.32;100765.72;5089646;28;20472;-64
2022/07/21 10:12:36;;;;;;;10.53;7.80;;;;;;;26.27;58.62;100757.06;5089121;28;20412;-64
2022/07/21 10:15:02;;;;;;;9.30;7.50;;;;;;;26.23;58.87;100756.25;5089258;28;20626;-64
2022/07/21 10:17:27;;;;;;;10.40;7.90;;;;;;;26.22;58.28;100754.63;5088839;28;20552;-64
2022/07/21 10:20:11;;;;;;;9.60;7.50;;;;;;;26.28;57.97;100752.94;5089106;28;20174;-64
2022/07/21 10:23:12;;;;;;;8.70;6.50;;;;;;;26.21;57.55;100750.09;5077989;28;20646;-64
2022/07/21 10:25:37;;;;;;;10.17;6.90;;;;;;;26.27;58.42;100754.19;5070140;28;20420;-64
2022/07/21 10:28:18;;;;;;;8.50;7.00;;;;;;;26.30;57.74;100753.31;5086026;28;20420;-64
2022/07/21 10:30:43;;;;;;;9.23;7.20;;;;;;;26.33;56.27;100755.38;5092663;28;20218;-64
2022/07/21 10:33:09;;;;;;;8.90;6.87;;;;;;;26.38;56.44;100756.97;5094208;28;20818;-64
2022/07/21 10:35:35;;;;;;;9.73;6.40;;;;;;;26.38;56.65;100746.25;5094376;28;20626;-64
2022/07/21 10:38:01;;;;;;;7.83;7.03;;;;;;;26.38;56.49;100757.81;5091876;28;20205;-64
2022/07/21 10:40:27;;;;;;;8.20;6.03;;;;;;;26.34;56.39;100748.34;5090769;28;20255;-64
2022/07/21 10:42:58;;;;;;;11.63;6.63;;;;;;;26.34;56.43;100754.13;5092312;28;20444;-64
2022/07/21 10:45:40;;;;;;;13.67;6.67;;;;;;;26.35;56.54;100749.16;5091812;28;20213;-64
2022/07/21 10:48:08;;;;;;;11.50;6.20;;;;;;;26.34;57.14;100759.91;5092187;28;20454;-64
2022/07/21 10:50:35;;;;;;;8.67;5.63;;;;;;;26.17;57.11;100752.16;5090660;28;20452;-64
2022/07/21 10:53:05;;;;;;;8.83;6.10;;;;;;;26.17;57.14;100752.16;5091463;28;20427;-64
2022/07/21 10:55:33;;;;;;;11.17;7.43;;;;;;;26.23;57.50;100747.59;5093976;28;20418;-64
2022/07/21 10:58:16;;;;;;;7.03;5.17;;;;;;;26.29;57.74;100748.78;5075465;28;20515;-64
2022/07/21 11:00:46;;;;;;;8.90;6.20;;;;;;;26.33;57.09;100749.59;5094402;28;20491;-64
2022/07/21 11:03:16;;;;;;;6.83;4.90;;;;;;;26.33;56.06;100749.59;5093467;28;20503;-64
2022/07/21 11:06:16;;;;;;;8.30;5.67;;;;;;;26.36;56.67;100751.66;5093883;28;20462;-64
2022/07/21 11:09:05;;;;;;;6.97;5.40;;;;;;;26.25;54.14;100742.19;5084270;28;20971;-64
2022/07/21 11:11:32;;;;;;;8.07;5.80;;;;;;;26.37;56.32;100747.50;5093481;28;20464;-64
2022/07/21 11:14:08;;;;;;;8.80;5.40;;;;;;;26.40;55.42;100740.03;5091757;28;20473;-64
2022/07/21 11:16:40;;;;;;;6.47;5.70;;;;;;;26.45;55.82;100745.38;5092428;28;20621;-64
2022/07/21 11:19:06;;;;;;;7.87;5.97;;;;;;;26.46;55.50;100736.28;5093430;28;20512;-64